EW4999 Weather Reports


Display with metric or nautical units.
time (UTC)temp
F
wind
direction
speed
MPH
gust
MPH
rain 1hr
in
rain 24hr
in
rain mn
in
humidity
%
barometer
mb
20190223162602 32 315 3.0 6.0 0.00 0.00 0.00 63 1030.6
20190223152601 28 290 2.0 6.0 0.00 0.00 0.00 70 1031.3
20190223142558 23 284 1.0 3.0 0.00 0.00 0.00 82 1031.6
20190223132600 18 90 0.0 0.0 0.00 0.00 0.00 91 1032.3
20190223122556 16 92 0.0 2.0 0.00 0.00 0.00 90 1032.3
20190223112555 17 92 0.0 4.0 0.00 0.00 0.00 89 1032.4
20190223102554 18 92 2.0 3.0 0.00 0.00 0.00 88 1032.3
20190223092554 20 92 3.0 4.0 0.00 0.00 0.00 87 1031.6
20190223082555 21 92 3.0 4.0 0.00 0.00 0.00 85 1031.5
20190223072553 22 92 3.0 6.0 0.00 0.00 0.00 83 1031.1
20190223062552 24 91 3.0 6.0 0.00 0.00 0.00 81 1030.5
20190223052553 25 91 0.0 3.0 0.00 0.00 0.00 82 1030.6
20190223042552 25 91 0.0 3.0 0.00 0.00 0.00 81 1030.3
20190223032553 26 91 0.0 4.0 0.00 0.00 0.00 80 1029.9
20190223022552 27 91 3.0 6.0 0.00 0.00 0.00 78 1029.1
20190223012553 28 86 1.0 4.0 0.00 0.00 0.00 76 1028.6
20190223002552 29 86 3.0 4.0 0.00 0.00 0.00 74 1028.3
20190222232553 30 85 3.0 4.0 0.00 0.00 0.00 72 1027.9
20190222222553 35 333 1.0 7.0 0.00 0.00 0.00 60 1027.2
20190222212552 36 331 3.0 10.0 0.00 0.00 0.00 56 1027.2
20190222202547 37 351 4.0 9.0 0.00 0.00 0.00 55 1026.4
20190222192548 37 291 4.0 11.0 0.00 0.00 0.00 55 1025.8
20190222182547 37 350 3.0 13.0 0.00 0.00 0.00 57 1025.8
20190222172548 35 250 4.0 13.0 0.00 0.00 0.00 60 1026.3